Wood, Iowa
Current Conditions -  °F | °C
As of 10:55 AM on Wednesday 22 Oct 2014 (Local Time) from KPDC Reporting Station
Clear Clear  
Wind Chill: 45°   Ceiling: Unl
Heat Index: 49°   Visibility: 10mi
Dew Point: 37°   Wind: 7mph
Humidity: 65%   Direction: 130°SE
Pressure: 30.32"   Gusts: NA
Location:  42.6679°N, 91.3801°W
Report Text: KPDC 221555Z AUTO 13006KT 10SM CLR 09/03 A3032 RMK AO2 T00920030
Loading
Personal Weather Stations






























Interactive Weather Map
Tropical Storm Tracking
New forecast layout! Learn more

10-Day Weather Forecast

Advertisements
Track Severe Weather on mobile